Garrisonville, Virginia
Current Conditions -  °F | °C
As of 3:15 PM on Thursday 18 Dec 2014 (Local Time) from KRMN Reporting Station
Clear Clear  
Wind Chill:   Ceiling: Unl
Heat Index:   Visibility: 10mi
Dew Point: -6°   Wind: 7mph
Humidity: 51%   Direction: 330°NNW
Pressure: 30.14"   Gusts: NA
Location:  38.48°N, 77.43°W
Report Text: KRMN 182015Z AUTO 33006KT 10SM CLR 04/M06 A3014 RMK AO2 T00381056
Loading
Personal Weather Stations






























Interactive Weather Map New forecast layout! Learn more

10-Day Weather Forecast

Advertisements
Track Severe Weather on mobile